sensor_id;sensor_type;location;lat;lon;timestamp;pressure;altitude;pressure_sealevel;temperature;humidity
36748;BME280;22716;51.556;5.080;2022-07-06T00:02:12;102404.53;;;15.25;78.25
36748;BME280;22716;51.556;5.080;2022-07-06T00:04:42;102400.13;;;15.27;78.62
36748;BME280;22716;51.556;5.080;2022-07-06T00:07:11;102401.03;;;15.26;78.81
36748;BME280;22716;51.556;5.080;2022-07-06T00:09:41;102402.78;;;15.24;79.12
36748;BME280;22716;51.556;5.080;2022-07-06T00:12:13;102406.34;;;15.15;79.51
36748;BME280;22716;51.556;5.080;2022-07-06T00:14:49;102402.00;;;15.08;80.27
36748;BME280;22716;51.556;5.080;2022-07-06T00:17:19;102397.59;;;15.04;79.89
36748;BME280;22716;51.556;5.080;2022-07-06T00:19:49;102403.78;;;14.98;80.90
36748;BME280;22716;51.556;5.080;2022-07-06T00:22:18;102397.66;;;14.89;81.01
36748;BME280;22716;51.556;5.080;2022-07-06T00:24:47;102406.44;;;14.89;81.27
36748;BME280;22716;51.556;5.080;2022-07-06T00:27:19;102389.75;;;14.83;81.22
36748;BME280;22716;51.556;5.080;2022-07-06T00:29:48;102402.97;;;14.84;81.83
36748;BME280;22716;51.556;5.080;2022-07-06T00:32:21;102400.28;;;14.89;81.77
36748;BME280;22716;51.556;5.080;2022-07-06T00:34:51;102397.69;;;14.84;81.73
36748;BME280;22716;51.556;5.080;2022-07-06T00:37:21;102403.88;;;14.71;81.93
36748;BME280;22716;51.556;5.080;2022-07-06T00:39:51;102401.25;;;14.62;82.20
36748;BME280;22716;51.556;5.080;2022-07-06T00:42:23;102402.16;;;14.61;82.23
36748;BME280;22716;51.556;5.080;2022-07-06T00:44:52;102396.03;;;14.53;82.45
36748;BME280;22716;51.556;5.080;2022-07-06T00:47:22;102406.56;;;14.57;82.44
36748;BME280;22716;51.556;5.080;2022-07-06T00:49:50;102404.78;;;14.58;82.92
36748;BME280;22716;51.556;5.080;2022-07-06T00:52:33;102408.31;;;14.52;82.86
36748;BME280;22716;51.556;5.080;2022-07-06T00:55:04;102396.06;;;14.38;82.79
36748;BME280;22716;51.556;5.080;2022-07-06T00:57:36;102398.69;;;14.41;83.40
36748;BME280;22716;51.556;5.080;2022-07-06T01:00:26;102395.13;;;14.45;83.39
36748;BME280;22716;51.556;5.080;2022-07-06T01:03:24;102398.66;;;14.50;83.70
36748;BME280;22716;51.556;5.080;2022-07-06T01:05:54;102397.75;;;14.54;83.34
36748;BME280;22716;51.556;5.080;2022-07-06T01:08:23;102409.22;;;14.50;83.41
36748;BME280;22716;51.556;5.080;2022-07-06T01:10:54;102399.56;;;14.37;83.61
36748;BME280;22716;51.556;5.080;2022-07-06T01:13:27;102396.94;;;14.35;84.33
36748;BME280;22716;51.556;5.080;2022-07-06T01:16:01;102379.31;;;14.22;84.09
36748;BME280;22716;51.556;5.080;2022-07-06T01:18:30;102395.16;;;14.39;83.88
36748;BME280;22716;51.556;5.080;2022-07-06T01:21:13;102398.66;;;14.39;84.17
36748;BME280;22716;51.556;5.080;2022-07-06T01:23:44;102392.50;;;14.27;84.98
36748;BME280;22716;51.556;5.080;2022-07-06T01:26:14;102398.66;;;14.15;85.22
36748;BME280;22716;51.556;5.080;2022-07-06T01:28:45;102408.34;;;14.12;85.63
36748;BME280;22716;51.556;5.080;2022-07-06T01:31:19;102391.63;;;14.10;86.01
36748;BME280;22716;51.556;5.080;2022-07-06T01:33:55;102396.91;;;14.20;85.43
36748;BME280;22716;51.556;5.080;2022-07-06T01:36:27;102396.91;;;14.08;86.16
36748;BME280;22716;51.556;5.080;2022-07-06T01:38:58;102404.81;;;14.07;86.41
36748;BME280;22716;51.556;5.080;2022-07-06T01:41:27;102401.31;;;13.97;86.93
36748;BME280;22716;51.556;5.080;2022-07-06T01:43:56;102400.44;;;13.87;87.33
36748;BME280;22716;51.556;5.080;2022-07-06T01:46:26;102410.97;;;13.81;87.47
36748;BME280;22716;51.556;5.080;2022-07-06T01:48:55;102400.41;;;13.80;88.08
36748;BME280;22716;51.556;5.080;2022-07-06T01:51:27;102409.19;;;13.74;88.22
36748;BME280;22716;51.556;5.080;2022-07-06T01:53:56;102409.16;;;13.71;88.32
36748;BME280;22716;51.556;5.080;2022-07-06T01:56:26;102408.31;;;13.80;88.44
36748;BME280;22716;51.556;5.080;2022-07-06T01:58:56;102399.56;;;13.85;88.19
36748;BME280;22716;51.556;5.080;2022-07-06T02:01:26;102401.31;;;13.85;88.04
36748;BME280;22716;51.556;5.080;2022-07-06T02:03:56;102371.44;;;13.72;88.05
36748;BME280;22716;51.556;5.080;2022-07-06T02:06:28;102402.19;;;13.88;88.02
36748;BME280;22716;51.556;5.080;2022-07-06T02:08:57;102390.72;;;13.68;88.21
36748;BME280;22716;51.556;5.080;2022-07-06T02:11:34;102403.91;;;13.70;88.23
36748;BME280;22716;51.556;5.080;2022-07-06T02:14:04;102413.59;;;13.68;88.86
36748;BME280;22716;51.556;5.080;2022-07-06T02:16:35;102415.34;;;13.73;88.64
36748;BME280;22716;51.556;5.080;2022-07-06T02:19:04;102415.34;;;13.76;88.35
36748;BME280;22716;51.556;5.080;2022-07-06T02:21:37;102413.59;;;13.68;88.69
36748;BME280;22716;51.556;5.080;2022-07-06T02:24:06;102410.03;;;13.54;89.36
36748;BME280;22716;51.556;5.080;2022-07-06T02:26:35;102410.91;;;13.46;89.69
36748;BME280;22716;51.556;5.080;2022-07-06T02:29:04;102404.75;;;13.43;89.80
36748;BME280;22716;51.556;5.080;2022-07-06T02:31:34;102390.72;;;13.44;90.00
36748;BME280;22716;51.556;5.080;2022-07-06T02:34:03;102396.88;;;13.52;89.34
36748;BME280;22716;51.556;5.080;2022-07-06T02:36:38;102402.13;;;13.54;89.39
36748;BME280;22716;51.556;5.080;2022-07-06T02:39:07;102386.28;;;13.44;89.44
36748;BME280;22716;51.556;5.080;2022-07-06T02:41:36;102391.59;;;13.46;89.88
36748;BME280;22716;51.556;5.080;2022-07-06T02:44:05;102387.19;;;13.46;89.70
36748;BME280;22716;51.556;5.080;2022-07-06T02:46:34;102381.91;;;13.42;89.88
36748;BME280;22716;51.556;5.080;2022-07-06T02:49:04;102405.63;;;13.54;89.83
36748;BME280;22716;51.556;5.080;2022-07-06T02:51:32;102406.50;;;13.59;89.44
36748;BME280;22716;51.556;5.080;2022-07-06T02:54:05;102407.41;;;13.60;89.38
36748;BME280;22716;51.556;5.080;2022-07-06T02:56:39;102413.56;;;13.53;89.31
36748;BME280;22716;51.556;5.080;2022-07-06T02:59:27;102411.78;;;13.41;90.01
36748;BME280;22716;51.556;5.080;2022-07-06T03:02:02;102404.75;;;13.46;89.81
36748;BME280;22716;51.556;5.080;2022-07-06T03:04:31;102407.38;;;13.49;89.75
36748;BME280;22716;51.556;5.080;2022-07-06T03:07:01;102397.72;;;13.51;89.44
36748;BME280;22716;51.556;5.080;2022-07-06T03:09:32;102403.88;;;13.48;89.67
36748;BME280;22716;51.556;5.080;2022-07-06T03:12:20;102402.97;;;13.39;89.84
36748;BME280;22716;51.556;5.080;2022-07-06T03:14:50;102413.47;;;13.33;90.16
36748;BME280;22716;51.556;5.080;2022-07-06T03:17:19;102408.25;;;13.40;90.32
36748;BME280;22716;51.556;5.080;2022-07-06T03:19:49;102409.13;;;13.35;89.83
36748;BME280;22716;51.556;5.080;2022-07-06T03:22:19;102411.75;;;13.35;90.14
36748;BME280;22716;51.556;5.080;2022-07-06T03:24:51;102412.59;;;13.28;90.16
36748;BME280;22716;51.556;5.080;2022-07-06T03:27:20;102419.59;;;13.27;90.40
36748;BME280;22716;51.556;5.080;2022-07-06T03:29:49;102412.59;;;13.28;90.55
36748;BME280;22716;51.556;5.080;2022-07-06T03:32:19;102409.09;;;13.26;90.20
36748;BME280;22716;51.556;5.080;2022-07-06T03:34:48;102409.03;;;13.18;90.26
36748;BME280;22716;51.556;5.080;2022-07-06T03:37:16;102412.56;;;13.17;90.92
36748;BME280;22716;51.556;5.080;2022-07-06T03:39:50;102412.56;;;13.22;90.65
36748;BME280;22716;51.556;5.080;2022-07-06T03:42:39;102406.47;;;13.32;90.51
36748;BME280;22716;51.556;5.080;2022-07-06T03:45:09;102411.75;;;13.39;90.30
36748;BME280;22716;51.556;5.080;2022-07-06T03:47:40;102413.53;;;13.43;89.86
36748;BME280;22716;51.556;5.080;2022-07-06T03:50:10;102401.22;;;13.35;90.12
36748;BME280;22716;51.556;5.080;2022-07-06T03:52:38;102397.66;;;13.27;90.25
36748;BME280;22716;51.556;5.080;2022-07-06T03:55:12;102417.88;;;13.34;90.20
36748;BME280;22716;51.556;5.080;2022-07-06T03:57:41;102415.25;;;13.37;90.54
36748;BME280;22716;51.556;5.080;2022-07-06T04:00:14;102403.88;;;13.41;89.91
36748;BME280;22716;51.556;5.080;2022-07-06T04:02:43;102408.28;;;13.50;89.72
36748;BME280;22716;51.556;5.080;2022-07-06T04:05:12;102404.78;;;13.58;89.41
36748;BME280;22716;51.556;5.080;2022-07-06T04:07:54;102404.78;;;13.61;89.15
36748;BME280;22716;51.556;5.080;2022-07-06T04:10:28;102403.00;;;13.57;89.07
36748;BME280;22716;51.556;5.080;2022-07-06T04:12:57;102399.47;;;13.44;89.79
36748;BME280;22716;51.556;5.080;2022-07-06T04:15:28;102396.81;;;13.34;89.70
36748;BME280;22716;51.556;5.080;2022-07-06T04:17:58;102389.78;;;13.28;89.92
36748;BME280;22716;51.556;5.080;2022-07-06T04:20:27;102393.28;;;13.30;89.91
36748;BME280;22716;51.556;5.080;2022-07-06T04:22:56;102388.91;;;13.29;90.13
36748;BME280;22716;51.556;5.080;2022-07-06T04:25:27;102392.44;;;13.42;89.75
36748;BME280;22716;51.556;5.080;2022-07-06T04:27:56;102392.47;;;13.54;89.53
36748;BME280;22716;51.556;5.080;2022-07-06T04:30:25;102399.50;;;13.63;89.56
36748;BME280;22716;51.556;5.080;2022-07-06T04:32:55;102392.50;;;13.74;89.08
36748;BME280;22716;51.556;5.080;2022-07-06T04:35:24;102386.38;;;13.76;88.68
36748;BME280;22716;51.556;5.080;2022-07-06T04:37:53;102384.59;;;13.92;88.56
36748;BME280;22716;51.556;5.080;2022-07-06T04:40:23;102383.75;;;13.99;88.32
36748;BME280;22716;51.556;5.080;2022-07-06T04:42:55;102390.75;;;14.11;87.47
36748;BME280;22716;51.556;5.080;2022-07-06T04:45:25;102396.03;;;14.14;87.92
36748;BME280;22716;51.556;5.080;2022-07-06T04:47:58;102397.78;;;14.19;87.60
36748;BME280;22716;51.556;5.080;2022-07-06T04:50:28;102389.84;;;14.24;87.09
36748;BME280;22716;51.556;5.080;2022-07-06T04:52:59;102392.50;;;14.31;87.01
36748;BME280;22716;51.556;5.080;2022-07-06T04:55:29;102392.53;;;14.37;86.87
36748;BME280;22716;51.556;5.080;2022-07-06T04:58:01;102393.38;;;14.45;86.63
36748;BME280;22716;51.556;5.080;2022-07-06T05:00:30;102395.97;;;14.65;86.45
36748;BME280;22716;51.556;5.080;2022-07-06T05:02:59;102393.19;;;15.07;84.86
36748;BME280;22716;51.556;5.080;2022-07-06T05:05:29;102398.31;;;15.36;83.59
36748;BME280;22716;51.556;5.080;2022-07-06T05:07:57;102402.69;;;15.52;82.89
36748;BME280;22716;51.556;5.080;2022-07-06T05:10:26;102393.91;;;15.38;83.54
36748;BME280;22716;51.556;5.080;2022-07-06T05:12:57;102411.50;;;15.39;83.31
36748;BME280;22716;51.556;5.080;2022-07-06T05:15:28;102408.91;;;15.32;83.96
36748;BME280;22716;51.556;5.080;2022-07-06T05:17:58;102407.13;;;15.37;83.38
36748;BME280;22716;51.556;5.080;2022-07-06T05:20:27;102400.09;;;15.37;83.87
36748;BME280;22716;51.556;5.080;2022-07-06T05:22:56;102404.44;;;15.52;83.23
36748;BME280;22716;51.556;5.080;2022-07-06T05:25:25;102403.53;;;15.54;82.93
36748;BME280;22716;51.556;5.080;2022-07-06T05:27:54;102396.50;;;15.46;83.37
36748;BME280;22716;51.556;5.080;2022-07-06T05:30:33;102407.91;;;15.61;83.04
36748;BME280;22716;51.556;5.080;2022-07-06T05:33:02;102412.28;;;15.67;83.07
36748;BME280;22716;51.556;5.080;2022-07-06T05:35:34;102405.25;;;15.60;82.48
36748;BME280;22716;51.556;5.080;2022-07-06T05:38:03;102418.41;;;15.67;82.70
36748;BME280;22716;51.556;5.080;2022-07-06T05:40:34;102412.13;;;15.87;82.42
36748;BME280;22716;51.556;5.080;2022-07-06T05:43:03;102417.13;;;16.21;80.77
36748;BME280;22716;51.556;5.080;2022-07-06T05:45:36;102404.63;;;16.36;80.63
36748;BME280;22716;51.556;5.080;2022-07-06T05:48:06;102409.94;;;16.33;80.25
36748;BME280;22716;51.556;5.080;2022-07-06T05:50:48;102417.16;;;16.17;80.94
36748;BME280;22716;51.556;5.080;2022-07-06T05:53:17;102406.63;;;16.09;81.33
36748;BME280;22716;51.556;5.080;2022-07-06T05:55:49;102414.56;;;16.11;81.06
36748;BME280;22716;51.556;5.080;2022-07-06T05:58:18;102417.16;;;16.15;81.16
36748;BME280;22716;51.556;5.080;2022-07-06T06:00:50;102414.53;;;16.12;81.30
36748;BME280;22716;51.556;5.080;2022-07-06T06:03:19;102416.31;;;16.13;81.08
36748;BME280;22716;51.556;5.080;2022-07-06T06:05:50;102420.78;;;16.08;81.39
36748;BME280;22716;51.556;5.080;2022-07-06T06:08:19;102423.41;;;16.08;81.36
36748;BME280;22716;51.556;5.080;2022-07-06T06:10:49;102419.81;;;16.15;81.01
36748;BME280;22716;51.556;5.080;2022-07-06T06:13:18;102421.47;;;16.29;80.77
36748;BME280;22716;51.556;5.080;2022-07-06T06:15:50;102419.66;;;16.34;80.33
36748;BME280;22716;51.556;5.080;2022-07-06T06:18:20;102416.88;;;16.46;79.89
36748;BME280;22716;51.556;5.080;2022-07-06T06:20:49;102412.44;;;16.52;79.55
36748;BME280;22716;51.556;5.080;2022-07-06T06:23:18;102413.25;;;16.59;79.61
36748;BME280;22716;51.556;5.080;2022-07-06T06:25:47;102417.53;;;16.70;79.31
36748;BME280;22716;51.556;5.080;2022-07-06T06:28:19;102423.59;;;16.82;78.17
36748;BME280;22716;51.556;5.080;2022-07-06T06:30:51;102426.97;;;16.96;77.56
36748;BME280;22716;51.556;5.080;2022-07-06T06:33:21;102422.41;;;17.08;77.21
36748;BME280;22716;51.556;5.080;2022-07-06T06:36:00;102424.13;;;17.11;76.72
36748;BME280;22716;51.556;5.080;2022-07-06T06:38:35;102429.47;;;17.06;77.18
36748;BME280;22716;51.556;5.080;2022-07-06T06:41:04;102432.19;;;17.02;76.56
36748;BME280;22716;51.556;5.080;2022-07-06T06:43:45;102425.13;;;17.01;76.51
36748;BME280;22716;51.556;5.080;2022-07-06T06:46:17;102421.50;;;17.09;76.31
36748;BME280;22716;51.556;5.080;2022-07-06T06:48:46;102416.22;;;17.06;75.74
36748;BME280;22716;51.556;5.080;2022-07-06T06:51:15;102427.56;;;17.17;75.59
36748;BME280;22716;51.556;5.080;2022-07-06T06:53:44;102426.69;;;17.20;75.27
36748;BME280;22716;51.556;5.080;2022-07-06T06:56:33;102431.91;;;17.26;74.05
36748;BME280;22716;51.556;5.080;2022-07-06T06:59:04;102426.56;;;17.27;73.25
36748;BME280;22716;51.556;5.080;2022-07-06T07:01:36;102429.91;;;17.43;72.64
36748;BME280;22716;51.556;5.080;2022-07-06T07:04:05;102433.22;;;17.59;71.83
36748;BME280;22716;51.556;5.080;2022-07-06T07:06:34;102435.81;;;17.62;72.03
36748;BME280;22716;51.556;5.080;2022-07-06T07:09:04;102433.16;;;17.63;71.74
36748;BME280;22716;51.556;5.080;2022-07-06T07:11:34;102434.00;;;17.67;71.60
36748;BME280;22716;51.556;5.080;2022-07-06T07:14:03;102429.72;;;17.57;72.23
36748;BME280;22716;51.556;5.080;2022-07-06T07:16:32;102439.31;;;17.67;71.28
36748;BME280;22716;51.556;5.080;2022-07-06T07:19:04;102439.47;;;17.55;72.26
36748;BME280;22716;51.556;5.080;2022-07-06T07:21:33;102436.94;;;17.44;71.67
36748;BME280;22716;51.556;5.080;2022-07-06T07:24:05;102428.13;;;17.42;71.40
36748;BME280;22716;51.556;5.080;2022-07-06T07:26:35;102428.94;;;17.49;71.00
36748;BME280;22716;51.556;5.080;2022-07-06T07:29:05;102440.16;;;17.69;69.85
36748;BME280;22716;51.556;5.080;2022-07-06T07:31:34;102439.34;;;17.64;69.50
36748;BME280;22716;51.556;5.080;2022-07-06T07:34:06;102438.22;;;17.80;68.31
36748;BME280;22716;51.556;5.080;2022-07-06T07:36:34;102437.97;;;17.95;67.54
36748;BME280;22716;51.556;5.080;2022-07-06T07:39:07;102448.72;;;17.86;67.37
36748;BME280;22716;51.556;5.080;2022-07-06T07:41:36;102446.47;;;17.59;67.67
36748;BME280;22716;51.556;5.080;2022-07-06T07:44:05;102450.09;;;17.52;67.78
36748;BME280;22716;51.556;5.080;2022-07-06T07:46:49;102443.19;;;17.38;66.08
36748;BME280;22716;51.556;5.080;2022-07-06T07:49:21;102434.94;;;17.61;65.19
36748;BME280;22716;51.556;5.080;2022-07-06T07:51:50;102432.34;;;17.60;64.83
36748;BME280;22716;51.556;5.080;2022-07-06T07:54:29;102438.16;;;17.84;63.97
36748;BME280;22716;51.556;5.080;2022-07-06T07:56:58;102444.41;;;17.79;62.55
36748;BME280;22716;51.556;5.080;2022-07-06T07:59:28;102439.97;;;17.79;61.40
36748;BME280;22716;51.556;5.080;2022-07-06T08:01:56;102428.44;;;17.82;60.32
36748;BME280;22716;51.556;5.080;2022-07-06T08:04:28;102426.06;;;17.65;60.27
36748;BME280;22716;51.556;5.080;2022-07-06T08:06:57;102432.25;;;17.66;61.05
36748;BME280;22716;51.556;5.080;2022-07-06T08:09:27;102412.75;;;17.70;61.49
36748;BME280;22716;51.556;5.080;2022-07-06T08:11:55;102422.03;;;17.98;61.06
36748;BME280;22716;51.556;5.080;2022-07-06T08:14:25;102427.97;;;18.12;61.30
36748;BME280;22716;51.556;5.080;2022-07-06T08:16:55;102428.59;;;18.26;61.11
36748;BME280;22716;51.556;5.080;2022-07-06T08:19:24;102427.50;;;18.39;61.08
36748;BME280;22716;51.556;5.080;2022-07-06T08:21:58;102426.53;;;18.45;61.25
36748;BME280;22716;51.556;5.080;2022-07-06T08:24:50;102417.88;;;18.34;61.79
36748;BME280;22716;51.556;5.080;2022-07-06T08:27:19;102428.25;;;18.47;61.14
36748;BME280;22716;51.556;5.080;2022-07-06T08:29:48;102425.72;;;18.40;61.41
36748;BME280;22716;51.556;5.080;2022-07-06T08:32:18;102421.38;;;18.37;61.20
36748;BME280;22716;51.556;5.080;2022-07-06T08:34:48;102431.09;;;18.35;60.85
36748;BME280;22716;51.556;5.080;2022-07-06T08:37:21;102420.75;;;18.20;61.29
36748;BME280;22716;51.556;5.080;2022-07-06T08:39:50;102423.44;;;18.19;61.80
36748;BME280;22716;51.556;5.080;2022-07-06T08:42:20;102421.56;;;18.25;61.39
36748;BME280;22716;51.556;5.080;2022-07-06T08:44:51;102403.69;;;18.35;60.24
36748;BME280;22716;51.556;5.080;2022-07-06T08:47:23;102416.78;;;18.44;59.73
36748;BME280;22716;51.556;5.080;2022-07-06T08:49:55;102394.78;;;18.39;60.06
36748;BME280;22716;51.556;5.080;2022-07-06T08:52:31;102405.97;;;18.58;60.02
36748;BME280;22716;51.556;5.080;2022-07-06T08:55:00;102407.31;;;18.80;58.80
36748;BME280;22716;51.556;5.080;2022-07-06T08:57:29;102401.56;;;18.99;58.92
36748;BME280;22716;51.556;5.080;2022-07-06T09:00:00;102393.84;;;19.30;59.07
36748;BME280;22716;51.556;5.080;2022-07-06T09:02:30;102395.19;;;19.49;58.07
36748;BME280;22716;51.556;5.080;2022-07-06T09:05:02;102397.66;;;19.58;57.12
36748;BME280;22716;51.556;5.080;2022-07-06T09:07:40;102398.97;;;19.78;56.58
36748;BME280;22716;51.556;5.080;2022-07-06T09:10:10;102403.94;;;19.91;56.07
36748;BME280;22716;51.556;5.080;2022-07-06T09:12:40;102396.72;;;19.96;55.36
36748;BME280;22716;51.556;5.080;2022-07-06T09:15:30;102389.91;;;19.86;55.15
36748;BME280;22716;51.556;5.080;2022-07-06T09:18:00;102394.06;;;19.96;55.23
36748;BME280;22716;51.556;5.080;2022-07-06T09:20:31;102399.88;;;20.12;55.37
36748;BME280;22716;51.556;5.080;2022-07-06T09:23:05;102401.94;;;20.01;53.76
36748;BME280;22716;51.556;5.080;2022-07-06T09:25:36;102401.06;;;20.00;53.30
36748;BME280;22716;51.556;5.080;2022-07-06T09:28:06;102407.94;;;20.09;52.57
36748;BME280;22716;51.556;5.080;2022-07-06T09:30:36;102407.63;;;20.21;52.09
36748;BME280;22716;51.556;5.080;2022-07-06T09:33:09;102406.25;;;20.40;51.53
36748;BME280;22716;51.556;5.080;2022-07-06T09:35:39;102408.03;;;20.41;51.54
36748;BME280;22716;51.556;5.080;2022-07-06T09:38:16;102398.34;;;20.37;50.92
36748;BME280;22716;51.556;5.080;2022-07-06T09:40:46;102409.00;;;20.37;50.19
36748;BME280;22716;51.556;5.080;2022-07-06T09:43:17;102409.97;;;20.35;49.18
36748;BME280;22716;51.556;5.080;2022-07-06T09:45:52;102410.28;;;20.21;48.94
36748;BME280;22716;51.556;5.080;2022-07-06T09:48:24;102414.53;;;20.31;49.05
36748;BME280;22716;51.556;5.080;2022-07-06T09:50:54;102411.63;;;20.39;49.32
36748;BME280;22716;51.556;5.080;2022-07-06T09:53:28;102413.56;;;20.34;48.45
36748;BME280;22716;51.556;5.080;2022-07-06T09:55:58;102414.75;;;20.21;48.03
36748;BME280;22716;51.556;5.080;2022-07-06T09:58:51;102410.03;;;20.32;47.63
36748;BME280;22716;51.556;5.080;2022-07-06T10:01:25;102414.25;;;20.40;47.93
36748;BME280;22716;51.556;5.080;2022-07-06T10:03:58;102415.09;;;20.42;47.62
36748;BME280;22716;51.556;5.080;2022-07-06T10:06:27;102403.59;;;20.40;46.99
36748;BME280;22716;51.556;5.080;2022-07-06T10:09:00;102410.69;;;20.41;47.11
36748;BME280;22716;51.556;5.080;2022-07-06T10:11:31;102408.84;;;20.43;47.33
36748;BME280;22716;51.556;5.080;2022-07-06T10:14:05;102410.03;;;20.32;47.60
36748;BME280;22716;51.556;5.080;2022-07-06T10:16:37;102420.59;;;20.35;47.79
36748;BME280;22716;51.556;5.080;2022-07-06T10:19:08;102421.16;;;20.49;47.80
36748;BME280;22716;51.556;5.080;2022-07-06T10:21:39;102418.28;;;20.55;46.82
36748;BME280;22716;51.556;5.080;2022-07-06T10:24:14;102429.31;;;20.75;46.83
36748;BME280;22716;51.556;5.080;2022-07-06T10:26:45;102420.09;;;20.87;46.84
36748;BME280;22716;51.556;5.080;2022-07-06T10:29:18;102419.94;;;20.91;46.40
36748;BME280;22716;51.556;5.080;2022-07-06T10:31:48;102415.94;;;20.77;45.97
36748;BME280;22716;51.556;5.080;2022-07-06T10:34:22;102420.75;;;20.93;46.27
36748;BME280;22716;51.556;5.080;2022-07-06T10:36:54;102419.84;;;20.96;45.70
36748;BME280;22716;51.556;5.080;2022-07-06T10:39:38;102418.81;;;21.00;45.98
36748;BME280;22716;51.556;5.080;2022-07-06T10:42:38;102410.09;;;20.93;45.99
36748;BME280;22716;51.556;5.080;2022-07-06T10:45:10;102402.00;;;20.98;45.94
36748;BME280;22716;51.556;5.080;2022-07-06T10:47:41;102406.06;;;21.11;45.81
36748;BME280;22716;51.556;5.080;2022-07-06T10:50:11;102406.75;;;21.19;44.95
36748;BME280;22716;51.556;5.080;2022-07-06T10:52:50;102404.00;;;21.20;45.11
36748;BME280;22716;51.556;5.080;2022-07-06T10:55:34;102401.84;;;21.02;45.27
36748;BME280;22716;51.556;5.080;2022-07-06T10:58:06;102403.16;;;20.88;45.29
36748;BME280;22716;51.556;5.080;2022-07-06T11:00:57;102394.00;;;20.98;45.52
36748;BME280;22716;51.556;5.080;2022-07-06T11:04:04;102388.63;;;20.99;45.31
36748;BME280;22716;51.556;5.080;2022-07-06T11:06:36;102405.31;;;21.06;44.63
36748;BME280;22716;51.556;5.080;2022-07-06T11:09:08;102399.06;;;21.07;45.21
36748;BME280;22716;51.556;5.080;2022-07-06T11:11:43;102409.75;;;21.05;45.22
36748;BME280;22716;51.556;5.080;2022-07-06T11:14:17;102401.81;;;21.04;45.42
36748;BME280;22716;51.556;5.080;2022-07-06T11:17:00;102399.06;;;21.07;45.43
36748;BME280;22716;51.556;5.080;2022-07-06T11:19:30;102393.50;;;21.16;45.65
36748;BME280;22716;51.556;5.080;2022-07-06T11:22:07;102392.47;;;21.20;45.20
36748;BME280;22716;51.556;5.080;2022-07-06T11:24:39;102397.34;;;21.35;45.28
36748;BME280;22716;51.556;5.080;2022-07-06T11:27:13;102393.41;;;21.48;45.08
36748;BME280;22716;51.556;5.080;2022-07-06T11:29:43;102385.75;;;21.64;44.80
36748;BME280;22716;51.556;5.080;2022-07-06T11:32:14;102386.50;;;21.69;44.55
36748;BME280;22716;51.556;5.080;2022-07-06T11:34:44;102380.41;;;21.65;44.47
36748;BME280;22716;51.556;5.080;2022-07-06T11:37:14;102377.63;;;21.68;44.39
36748;BME280;22716;51.556;5.080;2022-07-06T11:39:46;102388.13;;;21.73;44.42
36748;BME280;22716;51.556;5.080;2022-07-06T11:42:20;102373.81;;;21.75;44.64
36748;BME280;22716;51.556;5.080;2022-07-06T11:44:49;102377.94;;;21.86;44.01
36748;BME280;22716;51.556;5.080;2022-07-06T11:47:18;102367.19;;;21.87;43.82
36748;BME280;22716;51.556;5.080;2022-07-06T11:49:50;102366.91;;;21.98;43.24
36748;BME280;22716;51.556;5.080;2022-07-06T11:52:19;102362.16;;;22.06;42.90
36748;BME280;22716;51.556;5.080;2022-07-06T11:54:49;102350.69;;;22.04;43.08
36748;BME280;22716;51.556;5.080;2022-07-06T11:57:21;102347.50;;;21.93;43.09
36748;BME280;22716;51.556;5.080;2022-07-06T11:59:55;102344.09;;;21.88;43.40
36748;BME280;22716;51.556;5.080;2022-07-06T12:02:26;102352.13;;;21.86;43.37
36748;BME280;22716;51.556;5.080;2022-07-06T12:04:55;102341.09;;;21.98;43.37
36748;BME280;22716;51.556;5.080;2022-07-06T12:07:24;102336.91;;;22.16;43.36
36748;BME280;22716;51.556;5.080;2022-07-06T12:09:53;102333.94;;;22.25;42.08
36748;BME280;22716;51.556;5.080;2022-07-06T12:12:25;102341.31;;;22.17;41.85
36748;BME280;22716;51.556;5.080;2022-07-06T12:14:55;102340.28;;;22.21;41.57
36748;BME280;22716;51.556;5.080;2022-07-06T12:17:25;102336.22;;;22.34;41.28
36748;BME280;22716;51.556;5.080;2022-07-06T12:19:55;102332.31;;;22.44;41.21
36748;BME280;22716;51.556;5.080;2022-07-06T12:22:25;102337.38;;;22.52;40.81
36748;BME280;22716;51.556;5.080;2022-07-06T12:25:28;102337.50;;;22.73;40.58
36748;BME280;22716;51.556;5.080;2022-07-06T12:28:04;102325.44;;;22.86;40.57
36748;BME280;22716;51.556;5.080;2022-07-06T12:30:34;102329.31;;;23.01;40.28
36748;BME280;22716;51.556;5.080;2022-07-06T12:33:15;102324.81;;;23.02;40.41
36748;BME280;22716;51.556;5.080;2022-07-06T12:35:45;102315.31;;;23.16;40.06
36748;BME280;22716;51.556;5.080;2022-07-06T12:38:22;102319.72;;;23.40;39.94
36748;BME280;22716;51.556;5.080;2022-07-06T12:40:53;102318.84;;;23.62;39.08
36748;BME280;22716;51.556;5.080;2022-07-06T12:43:40;102323.94;;;23.46;39.32
36748;BME280;22716;51.556;5.080;2022-07-06T12:46:28;102320.69;;;23.39;40.03
36748;BME280;22716;51.556;5.080;2022-07-06T12:49:01;102327.34;;;23.51;40.01
36748;BME280;22716;51.556;5.080;2022-07-06T12:51:55;102320.63;;;23.83;39.03
36748;BME280;22716;51.556;5.080;2022-07-06T12:54:28;102322.09;;;24.12;39.11
36748;BME280;22716;51.556;5.080;2022-07-06T12:57:04;102318.88;;;24.24;38.56
36748;BME280;22716;51.556;5.080;2022-07-06T12:59:40;102327.84;;;24.23;38.29
36748;BME280;22716;51.556;5.080;2022-07-06T13:02:20;102321.81;;;24.38;37.72
36748;BME280;22716;51.556;5.080;2022-07-06T13:04:56;102327.78;;;24.63;37.35
36748;BME280;22716;51.556;5.080;2022-07-06T13:07:32;102319.78;;;24.43;37.41
36748;BME280;22716;51.556;5.080;2022-07-06T13:10:05;102314.97;;;24.31;38.04
36748;BME280;22716;51.556;5.080;2022-07-06T13:12:36;102318.81;;;24.64;37.42
36748;BME280;22716;51.556;5.080;2022-07-06T13:15:11;102305.78;;;24.75;36.89
36748;BME280;22716;51.556;5.080;2022-07-06T13:17:42;102318.00;;;24.82;36.79